Harbert, Michigan
Current Conditions -  °F | °C
As of 2:55 PM on Tuesday 21 Oct 2014 (Local Time) from KMGC Reporting Station
Scattered Clouds Scattered Clouds  
Wind Chill: 12°   Ceiling: Unl
Heat Index: 12°   Visibility: 10mi
Dew Point:   Wind: 18mph
Humidity: 54%   Direction: 10°N
Pressure: 30.14"   Gusts: 25mph
Location:  41.87°N, 86.63°W
Report Text: KMGC 211855Z AUTO 01016G22KT 340V040 10SM SCT030 SCT038 12/03 A3014 RMK AO2
Loading
Personal Weather Stations






























Interactive Weather Map
Tropical Storm Tracking
New forecast layout! Learn more

10-Day Weather Forecast

Advertisements
Track Severe Weather on mobile